createdAt,value
2017-09-20T00:01:32.937Z,15.94
2017-09-20T00:04:03.102Z,15.71
2017-09-20T00:06:31.483Z,15.86
2017-09-20T00:08:59.830Z,15.68
2017-09-20T00:11:28.645Z,15.39
2017-09-20T00:13:57.008Z,15.30
2017-09-20T00:16:26.284Z,15.30
2017-09-20T00:18:55.125Z,15.46
2017-09-20T00:21:23.539Z,15.36
2017-09-20T00:23:51.900Z,15.57
2017-09-20T00:26:20.612Z,15.60
2017-09-20T00:28:50.660Z,15.22
2017-09-20T00:31:19.879Z,15.10
2017-09-20T00:33:48.908Z,15.34
2017-09-20T00:36:17.535Z,15.40
2017-09-20T00:38:45.977Z,15.37
2017-09-20T00:41:15.441Z,15.40
2017-09-20T00:43:43.960Z,15.34
2017-09-20T00:46:12.353Z,15.27
2017-09-20T00:48:41.438Z,15.52
2017-09-20T00:51:09.792Z,15.35
2017-09-20T00:53:38.156Z,15.36
2017-09-20T00:56:06.821Z,15.53
2017-09-20T00:58:35.232Z,15.54
2017-09-20T01:01:03.595Z,15.41
2017-09-20T01:03:33.074Z,15.24
2017-09-20T01:06:01.464Z,15.30
2017-09-20T01:08:29.822Z,15.37
2017-09-20T01:10:58.752Z,14.99
2017-09-20T01:13:27.143Z,15.16
2017-09-20T01:15:55.505Z,15.22
2017-09-20T01:18:25.001Z,15.18
2017-09-20T01:21:10.997Z,15.05
2017-09-20T01:23:39.801Z,15.19
2017-09-20T01:26:08.145Z,15.04
2017-09-20T01:28:38.106Z,15.27
2017-09-20T01:31:07.111Z,15.23
2017-09-20T01:33:35.478Z,15.43
2017-09-20T01:36:03.852Z,15.51
2017-09-20T01:38:32.541Z,15.61
2017-09-20T01:41:00.900Z,15.44
2017-09-20T01:43:29.327Z,15.35
2017-09-20T01:45:57.963Z,15.38
2017-09-20T01:48:26.314Z,15.49
2017-09-20T01:50:55.433Z,15.40
2017-09-20T01:53:24.394Z,15.45
2017-09-20T01:55:52.748Z,15.58
2017-09-20T01:58:21.106Z,14.98
2017-09-20T02:00:49.836Z,15.12
2017-09-20T02:03:18.188Z,15.16
2017-09-20T02:05:47.061Z,15.18
2017-09-20T02:08:16.385Z,15.15
2017-09-20T02:10:44.983Z,15.18
2017-09-20T02:13:14.066Z,15.09
2017-09-20T02:15:43.211Z,15.25
2017-09-20T02:18:11.606Z,15.01
2017-09-20T02:20:40.744Z,15.22
2017-09-20T02:23:09.386Z,15.39
2017-09-20T02:25:37.710Z,15.44
2017-09-20T02:28:06.077Z,15.60
2017-09-20T02:30:35.706Z,15.58
2017-09-20T02:33:04.454Z,15.43
2017-09-20T02:35:32.790Z,15.43
2017-09-20T02:38:02.323Z,15.50
2017-09-20T02:40:30.673Z,15.41
2017-09-20T02:42:59.042Z,15.47
2017-09-20T02:45:27.910Z,15.52
2017-09-20T02:47:58.559Z,15.55
2017-09-20T02:50:27.011Z,15.21
2017-09-20T02:52:56.197Z,15.28
2017-09-20T02:55:24.568Z,15.43
2017-09-20T02:57:52.953Z,15.22
2017-09-20T03:00:22.216Z,14.95
2017-09-20T03:02:51.341Z,14.84
2017-09-20T03:05:20.706Z,14.89
2017-09-20T03:07:49.539Z,15.03
2017-09-20T03:10:17.985Z,15.08
2017-09-20T03:12:46.358Z,15.17
2017-09-20T03:15:15.077Z,15.14
2017-09-20T03:17:43.431Z,15.11
2017-09-20T03:20:12.827Z,15.08
2017-09-20T03:22:41.652Z,15.23
2017-09-20T03:25:10.031Z,14.90
2017-09-20T03:27:38.384Z,14.99
2017-09-20T03:30:07.924Z,14.94
2017-09-20T03:32:37.048Z,15.07
2017-09-20T03:35:06.313Z,15.09
2017-09-20T03:37:35.774Z,15.20
2017-09-20T03:40:04.141Z,15.22
2017-09-20T03:42:32.505Z,15.21
2017-09-20T03:45:02.449Z,14.93
2017-09-20T03:47:31.642Z,14.82
2017-09-20T03:50:00.298Z,15.12
2017-09-20T03:52:29.159Z,15.18
2017-09-20T03:54:57.516Z,14.84
2017-09-20T03:57:26.653Z,15.01
2017-09-20T03:59:55.284Z,14.97
2017-09-20T04:02:24.598Z,14.94
2017-09-20T04:04:53.721Z,14.97
2017-09-20T04:07:22.925Z,15.06
2017-09-20T04:09:51.265Z,15.13
2017-09-20T04:12:19.621Z,15.31
2017-09-20T04:14:48.365Z,15.35
2017-09-20T04:17:16.705Z,15.15
2017-09-20T04:19:45.063Z,15.46
2017-09-20T04:22:14.032Z,15.46
2017-09-20T04:24:42.386Z,15.17
2017-09-20T04:27:11.492Z,15.21
2017-09-20T04:29:41.336Z,15.34
2017-09-20T04:32:09.687Z,15.18
2017-09-20T04:34:38.094Z,15.10
2017-09-20T04:37:06.952Z,14.79
2017-09-20T04:39:35.289Z,15.08
2017-09-20T04:42:03.642Z,15.13
2017-09-20T04:44:32.905Z,15.22
2017-09-20T04:47:02.476Z,14.83
2017-09-20T04:49:30.839Z,14.92
2017-09-20T04:51:59.724Z,14.97
2017-09-20T04:54:28.105Z,15.02
2017-09-20T04:56:56.471Z,14.78
2017-09-20T04:59:25.151Z,15.05
2017-09-20T05:01:53.531Z,15.17
2017-09-20T05:04:21.921Z,14.81
2017-09-20T05:06:50.792Z,14.91
2017-09-20T05:09:19.152Z,14.88
2017-09-20T05:11:48.880Z,14.88
2017-09-20T05:14:19.126Z,15.08
2017-09-20T05:16:47.504Z,15.20
2017-09-20T05:19:15.855Z,15.07
2017-09-20T05:21:45.284Z,15.06
2017-09-20T05:24:13.653Z,15.01
2017-09-20T05:26:42.036Z,15.30
2017-09-20T05:29:11.534Z,15.19
2017-09-20T05:31:40.662Z,15.31
2017-09-20T05:34:09.851Z,15.21
2017-09-20T05:36:38.663Z,15.18
2017-09-20T05:39:07.026Z,15.07
2017-09-20T05:41:35.386Z,15.32
2017-09-20T05:44:04.146Z,15.30
2017-09-20T05:46:32.503Z,15.17
2017-09-20T05:49:01.638Z,15.22
2017-09-20T05:51:30.250Z,15.22
2017-09-20T05:53:58.611Z,15.29
2017-09-20T05:56:26.994Z,15.29
2017-09-20T05:58:55.707Z,15.26
2017-09-20T06:01:24.069Z,15.41
2017-09-20T06:03:52.422Z,15.39
2017-09-20T06:06:21.314Z,15.42
2017-09-20T06:08:49.658Z,15.57
2017-09-20T06:11:18.002Z,15.26
2017-09-20T06:13:46.674Z,15.39
2017-09-20T06:16:15.040Z,15.62
2017-09-20T06:18:43.402Z,15.66
2017-09-20T06:21:13.023Z,15.60
2017-09-20T06:23:41.367Z,15.55
2017-09-20T06:26:09.718Z,15.70
2017-09-20T06:28:38.372Z,15.75
2017-09-20T06:31:06.819Z,15.65
2017-09-20T06:33:35.943Z,15.62
2017-09-20T06:36:04.634Z,15.51
2017-09-20T06:38:33.013Z,15.44
2017-09-20T06:41:01.367Z,15.34
2017-09-20T06:43:30.369Z,15.30
2017-09-20T06:45:59.499Z,15.52
2017-09-20T06:48:28.653Z,15.51
2017-09-20T06:50:58.218Z,15.47
2017-09-20T06:53:26.558Z,15.57
2017-09-20T06:55:54.902Z,15.75
2017-09-20T06:58:23.522Z,15.61
2017-09-20T07:00:52.536Z,15.66
2017-09-20T07:03:20.870Z,15.79
2017-09-20T07:05:49.781Z,15.93
2017-09-20T07:08:18.224Z,15.69
2017-09-20T07:10:46.638Z,15.66
2017-09-20T07:13:16.866Z,15.70
2017-09-20T07:15:45.937Z,15.80
2017-09-20T07:18:14.312Z,15.88
2017-09-20T07:20:43.087Z,16.03
2017-09-20T07:23:11.445Z,16.28
2017-09-20T07:25:39.860Z,16.45
2017-09-20T07:28:10.249Z,16.64
2017-09-20T07:30:38.617Z,16.56
2017-09-20T07:33:08.340Z,16.69
2017-09-20T07:35:37.009Z,16.23
2017-09-20T07:38:05.371Z,16.42
2017-09-20T07:40:34.470Z,16.18
2017-09-20T07:43:03.125Z,16.23
2017-09-20T07:45:31.534Z,16.28
2017-09-20T07:48:00.649Z,16.58
2017-09-20T07:50:29.626Z,16.85
2017-09-20T07:52:57.976Z,17.07
2017-09-20T07:55:26.319Z,16.70
2017-09-20T07:57:55.914Z,16.71
2017-09-20T08:00:24.250Z,16.79
2017-09-20T08:02:53.359Z,16.89
2017-09-20T08:05:22.840Z,17.30
2017-09-20T08:07:51.207Z,17.41
2017-09-20T08:10:19.542Z,17.62
2017-09-20T08:12:48.591Z,17.57
2017-09-20T08:15:16.967Z,17.45
2017-09-20T08:17:46.074Z,17.96
2017-09-20T08:20:15.765Z,17.62
2017-09-20T08:22:44.112Z,17.80
2017-09-20T08:25:12.479Z,17.52
2017-09-20T08:27:41.587Z,17.86
2017-09-20T08:30:09.918Z,17.91
2017-09-20T08:32:39.256Z,18.03
2017-09-20T08:35:08.070Z,18.07
2017-09-20T08:37:36.426Z,18.67
2017-09-20T08:40:04.780Z,18.59
2017-09-20T08:42:34.283Z,18.93
2017-09-20T08:45:02.642Z,19.05
2017-09-20T08:47:30.987Z,18.89
2017-09-20T08:49:59.723Z,19.04
2017-09-20T08:52:28.070Z,19.43
2017-09-20T08:54:57.374Z,19.42
2017-09-20T08:57:26.626Z,19.09
2017-09-20T08:59:55.662Z,18.71
2017-09-20T09:02:24.856Z,18.60
2017-09-20T09:07:51.048Z,18.62
2017-09-20T09:10:20.172Z,18.73
2017-09-20T09:12:48.525Z,18.88
2017-09-20T09:15:18.565Z,19.06
2017-09-20T09:17:46.902Z,18.90
2017-09-20T09:20:15.257Z,18.72
2017-09-20T09:22:44.409Z,18.49
2017-09-20T09:25:13.674Z,18.89
2017-09-20T09:27:42.016Z,19.35
2017-09-20T09:30:10.645Z,19.56
2017-09-20T09:32:39.072Z,20.03
2017-09-20T09:35:07.394Z,20.29
2017-09-20T09:37:36.243Z,20.36
2017-09-20T09:40:05.252Z,20.24
2017-09-20T09:42:33.862Z,20.62
2017-09-20T09:45:02.794Z,20.43
2017-09-20T09:47:31.147Z,20.43
2017-09-20T09:49:59.502Z,20.57
2017-09-20T09:52:28.230Z,20.67
2017-09-20T09:54:56.570Z,21.42
2017-09-20T09:57:24.929Z,21.56
2017-09-20T09:59:53.694Z,21.24
2017-09-20T10:02:22.037Z,21.36
2017-09-20T10:04:51.201Z,21.75
2017-09-20T10:07:19.957Z,21.82
2017-09-20T10:09:48.341Z,22.17
2017-09-20T10:12:16.681Z,21.59
2017-09-20T10:14:45.431Z,21.05
2017-09-20T10:17:13.780Z,20.58
2017-09-20T10:19:42.962Z,21.03
2017-09-20T10:22:12.283Z,20.34
2017-09-20T10:24:40.621Z,20.79
2017-09-20T10:27:09.743Z,21.65
2017-09-20T10:29:38.498Z,21.39
2017-09-20T10:32:06.875Z,22.20
2017-09-20T10:34:36.009Z,23.24
2017-09-20T10:37:04.791Z,23.07
2017-09-20T10:39:33.146Z,23.42
2017-09-20T10:42:02.273Z,23.55
2017-09-20T10:44:32.090Z,22.87
2017-09-20T10:47:00.426Z,22.11
2017-09-20T10:49:28.768Z,21.95
2017-09-20T10:51:57.479Z,22.27
2017-09-20T10:54:25.833Z,22.49
2017-09-20T10:56:54.171Z,21.80
2017-09-20T10:59:23.824Z,20.95
2017-09-20T11:01:52.158Z,21.05
2017-09-20T11:04:21.303Z,21.02
2017-09-20T11:06:50.055Z,21.56
2017-09-20T11:09:18.910Z,22.54
2017-09-20T11:11:47.257Z,23.29
2017-09-20T11:14:16.112Z,22.97
2017-09-20T11:16:44.458Z,23.44
2017-09-20T11:19:13.639Z,22.79
2017-09-20T11:21:42.278Z,22.76
2017-09-20T11:24:10.637Z,22.38
2017-09-20T11:26:38.977Z,22.66
2017-09-20T11:29:07.818Z,21.97
2017-09-20T11:31:36.176Z,21.73
2017-09-20T11:34:04.536Z,21.84
2017-09-20T11:36:33.276Z,22.51
2017-09-20T11:39:01.831Z,22.36
2017-09-20T11:41:30.389Z,22.03
2017-09-20T11:43:59.267Z,22.88
2017-09-20T11:46:27.736Z,23.03
2017-09-20T11:48:56.884Z,23.45
2017-09-20T11:51:26.116Z,23.94
2017-09-20T11:53:55.244Z,25.71
2017-09-20T11:56:24.001Z,24.59
2017-09-20T11:58:53.079Z,24.16
2017-09-20T12:01:21.436Z,24.03
2017-09-20T12:03:49.802Z,24.45
2017-09-20T12:06:18.549Z,25.10
2017-09-20T12:08:46.906Z,25.44
2017-09-20T12:11:16.024Z,25.45
2017-09-20T12:13:45.213Z,25.85
2017-09-20T12:16:13.573Z,25.34
2017-09-20T12:18:42.687Z,25.37
2017-09-20T12:21:12.095Z,25.72
2017-09-20T12:23:40.436Z,25.04
2017-09-20T12:26:08.778Z,23.81
2017-09-20T12:28:37.770Z,22.82
2017-09-20T12:31:06.118Z,22.64
2017-09-20T12:33:34.912Z,23.12
2017-09-20T12:36:03.816Z,23.34
2017-09-20T12:38:32.172Z,24.37
2017-09-20T12:41:01.342Z,24.09
2017-09-20T12:43:30.063Z,24.29
2017-09-20T12:46:00.031Z,26.70
2017-09-20T12:48:29.267Z,28.76
2017-09-20T12:50:58.799Z,28.96
2017-09-20T12:53:27.216Z,29.38
2017-09-20T12:55:55.575Z,29.81
2017-09-20T12:58:24.423Z,30.50
2017-09-20T13:00:52.822Z,29.71
2017-09-20T13:03:21.176Z,28.71
2017-09-20T13:05:50.088Z,26.82
2017-09-20T13:08:19.234Z,25.39
2017-09-20T13:10:47.601Z,24.03
2017-09-20T13:13:16.231Z,23.55
2017-09-20T13:15:45.661Z,24.38
2017-09-20T13:18:14.014Z,25.35
2017-09-20T13:20:43.883Z,24.93
2017-09-20T13:23:12.294Z,25.70
2017-09-20T13:25:40.672Z,25.94
2017-09-20T13:28:09.295Z,27.10
2017-09-20T13:30:37.646Z,26.19
2017-09-20T13:33:06.013Z,25.65
2017-09-20T13:35:35.099Z,24.44
2017-09-20T13:38:03.426Z,24.23
2017-09-20T13:40:32.364Z,23.97
2017-09-20T13:43:01.143Z,23.04
2017-09-20T13:45:30.349Z,23.28
2017-09-20T13:47:58.709Z,23.24
2017-09-20T13:50:27.689Z,23.44
2017-09-20T13:52:56.014Z,24.81
2017-09-20T13:55:24.345Z,26.11
2017-09-20T13:57:52.984Z,26.11
2017-09-20T14:00:21.354Z,26.19
2017-09-20T14:02:49.721Z,25.71
2017-09-20T14:05:18.779Z,24.61
2017-09-20T14:07:49.518Z,23.93
2017-09-20T14:10:17.891Z,23.66
2017-09-20T14:12:46.682Z,24.06
2017-09-20T14:15:15.063Z,24.39
2017-09-20T14:17:43.398Z,24.87
2017-09-20T14:20:12.745Z,25.86
2017-09-20T14:22:41.633Z,26.76
2017-09-20T14:25:10.912Z,26.47
2017-09-20T14:27:39.720Z,24.95
2017-09-20T14:30:08.067Z,23.61
2017-09-20T14:32:36.395Z,22.81
2017-09-20T14:35:05.087Z,22.24
2017-09-20T14:37:33.432Z,21.76
2017-09-20T14:40:02.540Z,21.44
2017-09-20T14:42:31.312Z,21.67
2017-09-20T14:44:59.652Z,21.51
2017-09-20T14:47:27.997Z,22.03
2017-09-20T14:49:56.964Z,22.51
2017-09-20T14:52:25.322Z,22.06
2017-09-20T14:54:54.455Z,21.81
2017-09-20T14:57:23.204Z,21.53
2017-09-20T14:59:52.458Z,21.40
2017-09-20T15:02:20.794Z,21.27
2017-09-20T15:04:49.451Z,20.81
2017-09-20T15:07:17.803Z,20.61
2017-09-20T15:09:46.143Z,20.37
2017-09-20T15:12:16.167Z,20.35
2017-09-20T15:14:45.284Z,19.95
2017-09-20T15:17:13.644Z,20.00
2017-09-20T15:19:42.651Z,20.12
2017-09-20T15:22:11.021Z,20.07
2017-09-20T15:24:39.379Z,19.96
2017-09-20T15:27:08.011Z,19.75
2017-09-20T15:29:36.373Z,19.67
2017-09-20T15:32:04.762Z,19.62
2017-09-20T15:34:33.738Z,19.74
2017-09-20T15:37:02.093Z,19.16
2017-09-20T15:39:30.422Z,19.38
2017-09-20T15:41:59.102Z,19.37
2017-09-20T15:44:27.468Z,19.54
2017-09-20T15:46:55.838Z,19.42
2017-09-20T15:49:24.482Z,19.35
2017-09-20T15:51:52.856Z,19.57
2017-09-20T15:54:21.210Z,19.43
2017-09-20T15:56:50.066Z,19.51
2017-09-20T15:59:19.239Z,19.59
2017-09-20T16:01:47.695Z,19.60
2017-09-20T16:04:16.345Z,19.62
2017-09-20T16:06:44.721Z,19.83
2017-09-20T16:09:13.291Z,19.89
2017-09-20T16:11:42.061Z,20.35
2017-09-20T16:14:10.439Z,20.37
2017-09-20T16:16:38.831Z,20.07
2017-09-20T16:19:08.500Z,19.89
2017-09-20T16:21:36.884Z,19.41
2017-09-20T16:24:05.228Z,19.29
2017-09-20T16:26:33.989Z,19.27
2017-09-20T16:29:03.117Z,19.41
2017-09-20T16:31:31.573Z,19.38
2017-09-20T16:34:01.850Z,19.33
2017-09-20T16:36:30.238Z,19.06
2017-09-20T16:38:58.614Z,19.20
2017-09-20T16:41:27.492Z,19.17
2017-09-20T16:43:55.863Z,19.06
2017-09-20T16:46:24.277Z,19.12
2017-09-20T16:48:53.940Z,18.79
2017-09-20T16:51:23.039Z,18.25
2017-09-20T16:53:51.411Z,18.12
2017-09-20T16:56:20.908Z,18.28
2017-09-20T16:58:51.010Z,18.42
2017-09-20T17:01:20.182Z,18.33
2017-09-20T17:03:49.036Z,18.45
2017-09-20T17:06:17.431Z,18.32
2017-09-20T17:08:45.875Z,18.28
2017-09-20T17:11:15.484Z,18.19
2017-09-20T17:13:44.605Z,18.12
2017-09-20T17:16:12.970Z,17.94
2017-09-20T17:18:41.693Z,17.93
2017-09-20T17:21:10.188Z,17.97
2017-09-20T17:23:38.747Z,17.93
2017-09-20T17:26:07.670Z,18.08
2017-09-20T17:28:36.038Z,18.18
2017-09-20T17:33:32.363Z,18.02
2017-09-20T17:36:00.757Z,17.90
2017-09-20T17:38:29.150Z,17.95
2017-09-20T17:40:57.801Z,17.83
2017-09-20T17:43:26.297Z,17.87
2017-09-20T17:45:54.660Z,17.74
2017-09-20T17:48:23.451Z,17.61
2017-09-20T17:50:52.625Z,17.63
2017-09-20T17:53:21.031Z,17.80
2017-09-20T17:55:49.839Z,17.78
2017-09-20T17:58:18.213Z,17.69
2017-09-20T18:00:46.593Z,17.66
2017-09-20T18:03:15.509Z,17.68
2017-09-20T18:05:43.905Z,17.54
2017-09-20T18:08:12.724Z,17.59
2017-09-20T18:10:41.532Z,17.40
2017-09-20T18:13:09.986Z,17.47
2017-09-20T18:15:39.264Z,17.36
2017-09-20T18:18:07.954Z,17.32
2017-09-20T18:20:36.451Z,17.45
2017-09-20T18:23:05.097Z,17.47
2017-09-20T18:25:33.987Z,17.38
2017-09-20T18:28:02.500Z,17.33
2017-09-20T18:30:31.048Z,17.22
2017-09-20T18:33:00.132Z,17.36
2017-09-20T18:35:28.594Z,17.14
2017-09-20T18:37:57.040Z,17.11
2017-09-20T18:40:26.561Z,17.27
2017-09-20T18:42:55.749Z,17.33
2017-09-20T18:45:24.982Z,17.43
2017-09-20T18:47:53.693Z,17.14
2017-09-20T18:50:22.114Z,17.33
2017-09-20T18:52:51.328Z,17.39
2017-09-20T18:55:20.793Z,17.47
2017-09-20T18:57:49.243Z,17.46
2017-09-20T19:00:17.695Z,17.44
2017-09-20T19:02:46.502Z,17.25
2017-09-20T19:05:14.905Z,17.38
2017-09-20T19:07:43.493Z,17.25
2017-09-20T19:10:12.182Z,17.20
2017-09-20T19:12:41.326Z,17.36
2017-09-20T19:15:10.481Z,17.46
2017-09-20T19:17:39.363Z,17.39
2017-09-20T19:20:08.527Z,17.41
2017-09-20T19:22:36.934Z,17.33
2017-09-20T19:25:05.664Z,17.36
2017-09-20T19:27:34.828Z,17.26
2017-09-20T19:30:03.215Z,17.19
2017-09-20T19:32:32.183Z,17.22
2017-09-20T19:35:00.558Z,17.05
2017-09-20T19:37:28.978Z,17.06
2017-09-20T19:39:57.731Z,17.06
2017-09-20T19:42:26.159Z,16.70
2017-09-20T19:44:58.678Z,16.80
2017-09-20T19:47:27.082Z,16.96
2017-09-20T19:49:55.439Z,16.87
2017-09-20T19:52:24.228Z,16.59
2017-09-20T19:54:52.617Z,16.73
2017-09-20T19:57:21.007Z,16.66
2017-09-20T19:59:49.982Z,16.78
2017-09-20T20:02:18.344Z,16.86
2017-09-20T20:04:47.892Z,16.75
2017-09-20T20:07:16.567Z,16.76
2017-09-20T20:09:45.013Z,16.75
2017-09-20T20:12:13.397Z,16.49
2017-09-20T20:14:43.153Z,16.63
2017-09-20T20:17:11.550Z,16.68
2017-09-20T20:19:39.956Z,16.66
2017-09-20T20:22:09.566Z,16.83
2017-09-20T20:24:37.965Z,16.88
2017-09-20T20:27:06.381Z,16.69
2017-09-20T20:29:34.936Z,16.91
2017-09-20T20:32:03.330Z,16.89
2017-09-20T20:34:33.144Z,16.59
2017-09-20T20:37:01.730Z,16.59
2017-09-20T20:39:30.112Z,16.82
2017-09-20T20:41:58.485Z,16.46
2017-09-20T20:44:27.247Z,16.56
2017-09-20T20:46:55.674Z,16.36
2017-09-20T20:49:24.050Z,16.65
2017-09-20T20:51:52.837Z,16.65
2017-09-20T20:54:21.302Z,16.46
2017-09-20T20:56:49.697Z,16.17
2017-09-20T20:59:19.142Z,16.45
2017-09-20T21:01:48.308Z,16.72
2017-09-20T21:04:16.727Z,16.88
2017-09-20T21:06:46.107Z,16.83
2017-09-20T21:09:14.512Z,16.88
2017-09-20T21:11:42.902Z,16.96
2017-09-20T21:14:12.462Z,17.04
2017-09-20T21:16:40.939Z,16.64
2017-09-20T21:19:10.117Z,16.47
2017-09-20T21:21:38.998Z,16.39
2017-09-20T21:24:18.452Z,16.56
2017-09-20T21:26:47.246Z,16.67
2017-09-20T21:29:17.403Z,16.64
2017-09-20T21:31:45.846Z,16.72
2017-09-20T21:34:14.514Z,16.63
2017-09-20T21:36:43.053Z,16.56
2017-09-20T21:39:11.437Z,16.74
2017-09-20T21:41:40.879Z,16.75
2017-09-20T21:44:09.296Z,16.58
2017-09-20T21:46:37.703Z,16.55
2017-09-20T21:49:07.866Z,16.61
2017-09-20T21:51:36.841Z,16.71
2017-09-20T21:54:05.220Z,16.78
2017-09-20T21:56:34.010Z,16.60
2017-09-20T21:59:02.419Z,16.53
2017-09-20T22:01:31.064Z,16.42
2017-09-20T22:03:59.776Z,16.50
2017-09-20T22:06:28.142Z,16.36
2017-09-20T22:08:56.544Z,16.17
2017-09-20T22:11:25.978Z,15.95
2017-09-20T22:13:54.370Z,15.85
2017-09-20T22:16:40.734Z,15.63
2017-09-20T22:19:27.334Z,15.63
2017-09-20T22:22:13.612Z,15.77
2017-09-20T22:24:59.653Z,15.93
2017-09-20T22:27:30.781Z,16.02
2017-09-20T22:29:59.170Z,16.04
2017-09-20T22:32:27.699Z,16.10
2017-09-20T22:34:56.356Z,16.00
2017-09-20T22:37:25.693Z,16.04
2017-09-20T22:39:54.157Z,15.97
2017-09-20T22:42:22.932Z,15.93
2017-09-20T22:44:52.151Z,16.14
2017-09-20T22:47:20.562Z,16.06
2017-09-20T22:49:49.535Z,16.00
2017-09-20T22:52:17.970Z,16.05
2017-09-20T22:54:47.165Z,16.08
2017-09-20T22:57:16.001Z,15.95
2017-09-20T22:59:44.393Z,15.81
2017-09-20T23:02:12.877Z,15.95
2017-09-20T23:04:41.659Z,15.76
2017-09-20T23:07:10.626Z,15.63
2017-09-20T23:09:39.789Z,15.64
2017-09-20T23:12:08.862Z,15.64
2017-09-20T23:14:37.306Z,15.63
2017-09-20T23:17:05.778Z,15.68
2017-09-20T23:19:35.429Z,15.68
2017-09-20T23:22:03.875Z,15.67
2017-09-20T23:24:32.307Z,15.74
2017-09-20T23:27:00.968Z,15.87
2017-09-20T23:29:29.428Z,15.89
2017-09-20T23:31:58.632Z,15.96
2017-09-20T23:34:27.507Z,15.88
2017-09-20T23:36:56.805Z,16.00
2017-09-20T23:39:26.742Z,16.07
2017-09-20T23:41:55.383Z,16.18
2017-09-20T23:44:23.774Z,16.05
2017-09-20T23:46:52.206Z,16.18
2017-09-20T23:49:21.460Z,16.27
2017-09-20T23:51:49.894Z,16.22
2017-09-20T23:54:18.326Z,16.21
2017-09-20T23:56:48.170Z,16.40
2017-09-20T23:59:16.602Z,16.24
